Time;durP1;ratioP1;P1;durP2;ratioP2;P2;SDS_P1;SDS_P2;PMS_P1;PMS_P2;Temp;Humidity;BMP_temperature;BMP_pressure;BME280_temperature;BME280_humidity;BME280_pressure;Samples;Min_cycle;Max_cycle;Signal;HPM_P1;HPM_P2
2021/07/02 00:00:52;;;;;;;6.03;4.97;;;21.10;99.90;;;;;;5056461;28;20682;-70
2021/07/02 00:03:19;;;;;;;5.25;4.68;;;21.00;99.90;;;;;;5068907;28;20260;-73
2021/07/02 00:05:46;;;;;;;4.50;4.10;;;21.10;99.90;;;;;;5062963;28;20747;-74
2021/07/02 00:08:13;;;;;;;5.85;4.40;;;21.00;99.90;;;;;;5060329;28;20284;-70
2021/07/02 00:10:40;;;;;;;5.53;4.57;;;21.00;99.90;;;;;;5039554;28;20639;-70
2021/07/02 00:13:06;;;;;;;6.65;4.53;;;21.00;99.90;;;;;;5054224;28;20619;-70
2021/07/02 00:15:34;;;;;;;4.53;3.80;;;21.00;99.90;;;;;;5071762;28;20264;-69
2021/07/02 00:18:02;;;;;;;4.28;3.88;;;20.90;99.90;;;;;;5071700;28;20821;-75
2021/07/02 00:20:29;;;;;;;5.43;4.95;;;20.90;99.90;;;;;;5069702;28;20206;-75
2021/07/02 00:22:56;;;;;;;3.97;3.53;;;20.90;99.90;;;;;;5059504;28;20199;-69
2021/07/02 00:25:23;;;;;;;4.20;3.83;;;20.90;99.90;;;;;;5062332;28;20210;-69
2021/07/02 00:27:50;;;;;;;7.95;4.10;;;20.90;99.90;;;;;;5066273;28;20263;-69
2021/07/02 00:30:17;;;;;;;5.35;4.85;;;21.00;99.90;;;;;;5061465;28;20202;-76
2021/07/02 00:32:44;;;;;;;3.92;3.53;;;21.00;99.90;;;;;;5071653;28;20626;-69
2021/07/02 00:35:12;;;;;;;6.78;4.20;;;21.00;99.90;;;;;;5068493;28;20345;-69
2021/07/02 00:37:39;;;;;;;4.82;3.92;;;21.00;99.90;;;;;;5061286;28;20782;-70
2021/07/02 00:40:07;;;;;;;3.78;3.47;;;20.80;99.90;;;;;;5064583;28;20738;-69
2021/07/02 00:42:35;;;;;;;3.88;3.55;;;20.70;99.90;;;;;;5060615;28;20264;-74
2021/07/02 00:45:02;;;;;;;4.32;3.92;;;20.60;99.90;;;;;;5051337;28;20576;-69
2021/07/02 00:47:29;;;;;;;3.80;3.45;;;20.60;99.90;;;;;;5071659;28;20209;-69
2021/07/02 00:49:56;;;;;;;5.93;4.65;;;20.60;99.90;;;;;;5069556;28;20203;-70
2021/07/02 00:52:25;;;;;;;4.68;4.28;;;20.70;99.90;;;;;;5065214;28;20211;-71
2021/07/02 00:54:53;;;;;;;6.38;4.65;;;20.80;99.90;;;;;;5057619;28;20207;-71
2021/07/02 00:57:22;;;;;;;4.68;4.15;;;21.00;99.90;;;;;;5063145;28;20317;-74
2021/07/02 00:59:49;;;;;;;5.25;4.65;;;21.10;99.90;;;;;;5061256;28;20909;-72
2021/07/02 01:02:16;;;;;;;6.47;4.72;;;21.10;99.90;;;;;;5062763;28;20289;-76
2021/07/02 01:04:43;;;;;;;5.93;4.72;;;21.10;99.90;;;;;;5057942;28;20209;-69
2021/07/02 01:07:11;;;;;;;5.78;3.92;;;21.00;99.90;;;;;;5057553;28;20252;-69
2021/07/02 01:09:41;;;;;;;4.03;3.60;;;21.00;99.90;;;;;;5058753;28;20245;-69
2021/07/02 01:12:11;;;;;;;4.28;3.95;;;21.00;99.90;;;;;;5056958;28;20225;-70
2021/07/02 01:14:38;;;;;;;6.88;4.25;;;21.00;99.90;;;;;;5063215;28;20669;-69
2021/07/02 01:17:05;;;;;;;8.18;4.68;;;21.00;99.90;;;;;;5053986;28;20238;-69
2021/07/02 01:19:32;;;;;;;5.50;4.15;;;21.00;99.90;;;;;;5071107;28;20259;-69
2021/07/02 01:22:01;;;;;;;5.53;4.18;;;21.00;99.90;;;;;;5062512;28;20210;-74
2021/07/02 01:24:28;;;;;;;5.28;4.10;;;21.00;99.90;;;;;;5068689;28;20217;-69
2021/07/02 01:26:56;;;;;;;8.68;5.00;;;21.00;99.90;;;;;;5064982;28;20630;-74
2021/07/02 01:29:23;;;;;;;4.53;3.92;;;21.00;99.90;;;;;;5063966;28;20202;-70
2021/07/02 01:31:50;;;;;;;5.03;4.50;;;20.90;99.90;;;;;;5054631;28;20203;-69
2021/07/02 01:34:17;;;;;;;5.57;4.68;;;20.80;99.90;;;;;;5051928;28;20207;-69
2021/07/02 01:36:45;;;;;;;4.70;4.00;;;20.80;99.90;;;;;;5063312;28;20236;-70
2021/07/02 01:39:13;;;;;;;6.07;4.78;;;20.70;99.90;;;;;;5055487;28;20203;-74
2021/07/02 01:41:40;;;;;;;5.65;5.15;;;20.60;99.90;;;;;;5062143;28;20748;-72
2021/07/02 01:44:07;;;;;;;4.78;4.05;;;20.60;99.90;;;;;;5059093;28;20202;-71
2021/07/02 01:46:34;;;;;;;4.93;4.45;;;20.60;99.90;;;;;;5049445;28;20211;-70
2021/07/02 01:49:01;;;;;;;4.63;4.22;;;20.60;99.90;;;;;;5050286;28;20211;-69
2021/07/02 01:51:28;;;;;;;4.72;4.30;;;20.60;99.90;;;;;;5065035;28;20210;-70
2021/07/02 01:53:55;;;;;;;5.32;4.82;;;20.50;99.90;;;;;;5058742;28;20202;-71
2021/07/02 01:56:23;;;;;;;4.43;4.05;;;20.60;99.90;;;;;;5059721;28;20324;-69
2021/07/02 01:58:51;;;;;;;9.23;4.97;;;20.70;99.90;;;;;;5059641;28;20199;-75
2021/07/02 02:01:18;;;;;;;7.05;4.85;;;20.70;99.90;;;;;;5053113;28;20305;-70
2021/07/02 02:03:47;;;;;;;5.45;4.35;;;20.70;99.90;;;;;;5062042;28;20207;-69
2021/07/02 02:06:14;;;;;;;5.00;4.55;;;20.70;99.90;;;;;;5055565;28;20216;-69
2021/07/02 02:08:41;;;;;;;3.63;3.30;;;20.80;99.90;;;;;;5067642;28;20724;-69
2021/07/02 02:11:08;;;;;;;4.97;4.13;;;20.80;99.90;;;;;;5052838;28;20646;-69
2021/07/02 02:13:36;;;;;;;6.25;3.55;;;20.80;99.90;;;;;;5056326;28;20206;-69
2021/07/02 02:16:04;;;;;;;4.35;3.95;;;20.80;99.90;;;;;;5042623;28;20229;-69
2021/07/02 02:18:31;;;;;;;7.65;4.65;;;20.80;99.90;;;;;;5050371;28;20238;-69
2021/07/02 02:20:58;;;;;;;4.85;3.55;;;20.90;99.90;;;;;;5054549;28;20683;-70
2021/07/02 02:23:25;;;;;;;4.40;3.85;;;21.00;99.90;;;;;;5055706;28;20206;-77
2021/07/02 02:25:52;;;;;;;4.95;4.45;;;20.90;99.90;;;;;;5052552;28;20206;-71
2021/07/02 02:28:19;;;;;;;3.95;3.65;;;20.90;99.90;;;;;;5058128;28;20255;-70
2021/07/02 02:30:47;;;;;;;5.05;4.13;;;20.90;99.90;;;;;;5066537;28;20210;-71
2021/07/02 02:33:14;;;;;;;3.40;2.92;;;20.80;99.90;;;;;;5057253;28;20272;-73
2021/07/02 02:35:41;;;;;;;4.40;4.00;;;20.80;99.90;;;;;;5052471;28;20556;-71
2021/07/02 02:38:08;;;;;;;4.47;4.07;;;20.90;99.90;;;;;;5046966;28;20249;-73
2021/07/02 02:40:35;;;;;;;3.63;3.33;;;20.80;99.90;;;;;;5051101;28;20658;-72
2021/07/02 02:43:02;;;;;;;4.78;4.00;;;20.80;99.90;;;;;;5050208;28;20632;-70
2021/07/02 02:45:30;;;;;;;5.38;3.50;;;20.80;99.90;;;;;;5049507;28;20737;-72
2021/07/02 02:47:58;;;;;;;4.50;4.00;;;20.80;99.90;;;;;;5049365;28;20211;-76
2021/07/02 02:50:25;;;;;;;4.53;4.13;;;20.90;99.90;;;;;;5057333;28;20691;-74
2021/07/02 02:52:52;;;;;;;4.43;3.70;;;20.90;99.90;;;;;;5054812;28;20629;-72
2021/07/02 02:55:19;;;;;;;4.50;4.10;;;20.90;99.90;;;;;;5061550;28;20206;-75
2021/07/02 02:57:46;;;;;;;4.47;4.07;;;20.90;99.90;;;;;;5058817;28;20292;-71
2021/07/02 03:00:14;;;;;;;4.15;3.38;;;20.80;99.90;;;;;;5050154;28;20202;-72
2021/07/02 03:02:41;;;;;;;4.65;3.65;;;20.70;99.90;;;;;;5050237;28;20257;-71
2021/07/02 03:05:11;;;;;;;4.07;3.58;;;20.60;99.90;;;;;;5053735;28;20253;-71
2021/07/02 03:07:38;;;;;;;3.42;3.13;;;20.60;99.90;;;;;;5066622;28;20263;-69
2021/07/02 03:10:06;;;;;;;5.13;4.53;;;20.60;99.90;;;;;;5056287;28;20680;-69
2021/07/02 03:12:33;;;;;;;5.78;4.32;;;20.50;99.90;;;;;;5053612;28;20206;-69
2021/07/02 03:15:00;;;;;;;4.30;3.85;;;20.60;99.90;;;;;;5051937;28;20563;-73
2021/07/02 03:17:27;;;;;;;4.13;3.63;;;20.20;99.90;;;;;;5052953;28;20235;-76
2021/07/02 03:19:54;;;;;;;4.68;3.85;;;20.10;99.90;;;;;;5056003;28;20264;-74
2021/07/02 03:22:22;;;;;;;4.72;4.18;;;20.00;99.90;;;;;;5054069;28;20253;-69
2021/07/02 03:24:50;;;;;;;4.50;4.10;;;19.70;99.90;;;;;;5058675;28;20211;-75
2021/07/02 03:27:17;;;;;;;4.25;3.88;;;19.60;99.90;;;;;;5058229;28;20206;-69
2021/07/02 03:29:44;;;;;;;5.13;3.70;;;19.70;99.90;;;;;;5055707;28;20206;-69
2021/07/02 03:32:11;;;;;;;5.40;4.95;;;19.70;99.90;;;;;;5057300;28;20665;-70
2021/07/02 03:34:43;;;;;;;6.63;5.00;;;19.70;99.90;;;;;;5052342;28;20673;-69
2021/07/02 03:37:10;;;;;;;5.82;4.70;;;19.60;99.90;;;;;;5061068;28;20218;-72
2021/07/02 03:39:39;;;;;;;4.95;4.35;;;19.60;99.90;;;;;;5051684;28;20907;-75
2021/07/02 03:42:06;;;;;;;5.20;4.57;;;19.60;99.90;;;;;;5057451;28;20214;-69
2021/07/02 03:44:33;;;;;;;4.80;4.40;;;19.60;99.90;;;;;;5061404;28;20214;-70
2021/07/02 03:47:00;;;;;;;6.18;4.90;;;19.50;99.90;;;;;;5058537;28;20694;-75
2021/07/02 03:49:27;;;;;;;6.13;4.57;;;19.40;99.90;;;;;;5052856;28;20332;-70
2021/07/02 03:51:54;;;;;;;6.00;4.60;;;19.40;99.90;;;;;;5066551;28;20260;-69
2021/07/02 03:54:22;;;;;;;5.15;4.70;;;19.40;99.90;;;;;;5056131;28;20210;-74
2021/07/02 03:59:34;;;;;;;5.10;3.83;;;19.30;99.90;;;;;;5058925;28;20214;-68
2021/07/02 04:02:01;;;;;;;4.22;3.90;;;19.20;99.90;;;;;;5056207;28;20731;-68
2021/07/02 04:04:28;;;;;;;5.32;4.15;;;19.30;99.90;;;;;;5052790;28;20210;-73
2021/07/02 04:06:55;;;;;;;5.13;4.60;;;19.30;99.90;;;;;;5050806;28;20253;-69
2021/07/02 04:09:22;;;;;;;5.25;4.75;;;19.20;99.90;;;;;;5054166;28;20199;-70
2021/07/02 04:11:50;;;;;;;5.63;5.07;;;19.30;99.90;;;;;;5054151;28;20682;-68
2021/07/02 04:14:17;;;;;;;7.22;5.55;;;19.30;99.90;;;;;;5057795;28;20238;-69
2021/07/02 04:16:44;;;;;;;5.45;4.95;;;19.30;99.90;;;;;;5052300;28;20222;-70
2021/07/02 04:19:11;;;;;;;6.47;4.55;;;19.30;99.90;;;;;;5052597;28;20642;-69
2021/07/02 04:21:38;;;;;;;4.88;4.47;;;19.30;99.90;;;;;;5060629;28;20210;-69
2021/07/02 04:24:05;;;;;;;6.05;5.00;;;19.30;99.90;;;;;;5056855;28;20734;-76
2021/07/02 04:26:33;;;;;;;4.50;4.10;;;19.30;99.90;;;;;;5055720;28;20206;-70
2021/07/02 04:29:01;;;;;;;5.20;4.72;;;19.30;99.90;;;;;;5056124;28;20207;-73
2021/07/02 04:31:28;;;;;;;5.28;4.78;;;19.30;99.90;;;;;;5052425;28;20214;-69
2021/07/02 04:33:55;;;;;;;5.75;4.95;;;19.40;99.90;;;;;;5053517;28;20207;-69
2021/07/02 04:36:22;;;;;;;8.25;5.43;;;19.50;99.90;;;;;;5060816;28;20210;-72
2021/07/02 04:38:49;;;;;;;8.55;4.82;;;19.50;99.90;;;;;;5055494;28;20229;-69
2021/07/02 04:41:16;;;;;;;5.13;4.63;;;19.50;99.90;;;;;;5050245;28;20237;-69
2021/07/02 04:43:43;;;;;;;9.60;5.00;;;19.50;99.90;;;;;;5053185;28;20673;-70
2021/07/02 04:46:11;;;;;;;7.25;5.15;;;19.50;99.90;;;;;;5050087;28;20639;-70
2021/07/02 04:48:38;;;;;;;5.30;4.38;;;19.50;99.90;;;;;;5051955;28;20203;-71
2021/07/02 04:51:07;;;;;;;5.03;4.63;;;19.50;99.90;;;;;;5065001;28;20210;-70
2021/07/02 04:53:34;;;;;;;5.85;4.40;;;19.60;99.90;;;;;;5059523;28;20225;-75
2021/07/02 04:56:01;;;;;;;5.20;4.80;;;19.60;99.90;;;;;;5057817;28;20678;-70
2021/07/02 04:58:28;;;;;;;5.25;4.75;;;19.70;99.90;;;;;;5048515;28;20760;-75
2021/07/02 05:00:55;;;;;;;4.53;4.13;;;19.70;99.90;;;;;;5054965;28;20215;-71
2021/07/02 05:03:23;;;;;;;5.70;5.20;;;19.80;99.90;;;;;;5051028;28;20599;-71
2021/07/02 05:05:50;;;;;;;5.82;5.28;;;19.80;99.90;;;;;;5051079;28;20202;-71
2021/07/02 05:08:17;;;;;;;4.63;3.92;;;20.00;99.90;;;;;;5050967;28;20211;-69
2021/07/02 05:10:44;;;;;;;7.75;5.20;;;19.80;99.90;;;;;;5050029;28;20289;-72
2021/07/02 05:13:11;;;;;;;5.50;4.57;;;19.90;99.90;;;;;;5051483;28;20272;-70
2021/07/02 05:15:38;;;;;;;5.10;4.70;;;20.00;99.90;;;;;;5051004;28;20218;-70
2021/07/02 05:18:05;;;;;;;5.05;4.65;;;20.10;99.90;;;;;;5051243;28;20235;-76
2021/07/02 05:20:34;;;;;;;5.15;4.75;;;20.20;99.90;;;;;;5051042;28;20621;-70
2021/07/02 05:23:00;;;;;;;6.47;4.85;;;20.40;99.90;;;;;;5050457;28;20273;-76
2021/07/02 05:25:28;;;;;;;5.85;4.28;;;20.30;99.90;;;;;;5050203;28;20867;-69
2021/07/02 05:27:55;;;;;;;7.07;4.50;;;20.30;99.90;;;;;;5050844;28;20261;-70
2021/07/02 05:30:22;;;;;;;6.15;5.07;;;20.30;99.90;;;;;;5050990;28;20265;-70
2021/07/02 05:32:51;;;;;;;5.60;5.10;;;20.50;99.90;;;;;;5050560;28;20290;-76
2021/07/02 05:35:18;;;;;;;7.65;4.82;;;20.60;99.90;;;;;;5051118;28;20211;-70
2021/07/02 05:37:46;;;;;;;7.78;5.22;;;20.70;99.90;;;;;;5060509;28;20222;-71
2021/07/02 05:40:15;;;;;;;5.20;4.70;;;20.70;99.90;;;;;;5050086;28;20199;-72
2021/07/02 05:42:43;;;;;;;8.98;5.45;;;20.80;99.90;;;;;;5061820;28;20264;-70
2021/07/02 05:45:10;;;;;;;5.40;4.90;;;20.90;99.90;;;;;;5050744;28;20719;-71
2021/07/02 05:47:38;;;;;;;7.07;4.93;;;20.90;99.90;;;;;;5053279;28;20622;-73
2021/07/02 05:50:07;;;;;;;6.32;4.43;;;21.00;99.90;;;;;;5050772;28;20294;-77
2021/07/02 05:52:35;;;;;;;5.28;4.78;;;21.00;99.90;;;;;;5053722;28;20206;-74
2021/07/02 05:55:04;;;;;;;4.68;4.28;;;21.20;99.90;;;;;;5052422;28;20203;-69
2021/07/02 05:57:31;;;;;;;8.48;5.05;;;21.40;99.90;;;;;;5057175;28;20206;-75
2021/07/02 05:59:58;;;;;;;7.05;5.07;;;21.70;99.90;;;;;;5052076;28;20697;-72
2021/07/02 06:02:25;;;;;;;5.63;4.30;;;21.90;99.90;;;;;;5050304;28;20731;-68
2021/07/02 06:04:52;;;;;;;5.13;4.07;;;21.80;99.90;;;;;;5050646;28;20206;-75
2021/07/02 06:07:19;;;;;;;6.47;5.07;;;21.90;99.90;;;;;;5056781;28;20207;-69
2021/07/02 06:09:46;;;;;;;7.47;4.82;;;21.90;99.90;;;;;;5049220;28;20756;-74
2021/07/02 06:12:14;;;;;;;8.88;5.75;;;22.10;99.90;;;;;;5052143;28;20623;-75
2021/07/02 06:14:41;;;;;;;7.35;4.40;;;22.00;99.90;;;;;;5057117;28;20203;-68
2021/07/02 06:17:09;;;;;;;5.13;4.68;;;22.10;99.90;;;;;;5051305;28;20210;-69
2021/07/02 06:19:35;;;;;;;5.72;4.78;;;21.90;99.90;;;;;;5048973;28;20716;-73
2021/07/02 06:22:04;;;;;;;4.70;4.30;;;21.90;99.90;;;;;;5048970;28;20215;-76
2021/07/02 06:24:31;;;;;;;5.20;4.50;;;22.10;99.90;;;;;;5049930;28;20651;-77
2021/07/02 06:26:58;;;;;;;5.55;5.05;;;22.10;99.90;;;;;;5049843;28;20793;-72
2021/07/02 06:29:26;;;;;;;7.07;5.00;;;22.00;99.90;;;;;;5050054;28;20210;-69
2021/07/02 06:31:54;;;;;;;7.00;4.82;;;21.90;99.90;;;;;;5050014;28;20209;-71
2021/07/02 06:34:20;;;;;;;6.63;5.20;;;21.90;99.90;;;;;;5049942;28;20203;-70
2021/07/02 06:36:47;;;;;;;6.80;5.35;;;21.80;99.90;;;;;;5040440;28;20203;-79
2021/07/02 06:39:14;;;;;;;6.60;5.45;;;21.60;99.90;;;;;;5043261;28;20774;-76
2021/07/02 06:41:41;;;;;;;7.18;5.13;;;21.40;99.90;;;;;;5050832;28;20244;-74
2021/07/02 06:44:08;;;;;;;7.25;4.95;;;21.50;99.90;;;;;;5063505;28;20202;-74
2021/07/02 06:46:37;;;;;;;5.22;4.47;;;21.70;99.90;;;;;;5067298;28;20256;-77
2021/07/02 06:49:05;;;;;;;8.00;5.05;;;21.80;99.90;;;;;;5070473;28;20198;-74
2021/07/02 06:51:33;;;;;;;5.93;4.90;;;22.00;99.90;;;;;;5067276;28;20210;-74
2021/07/02 06:54:01;;;;;;;6.35;5.25;;;22.10;99.90;;;;;;5070599;28;20728;-76
2021/07/02 06:56:29;;;;;;;6.00;4.63;;;22.30;99.90;;;;;;5068386;28;20249;-77
2021/07/02 06:58:57;;;;;;;6.45;5.28;;;22.40;99.90;;;;;;5063164;28;20308;-75
2021/07/02 07:01:24;;;;;;;6.85;5.07;;;22.40;99.90;;;;;;5061761;28;20271;-74
2021/07/02 07:03:53;;;;;;;7.65;4.93;;;22.30;99.90;;;;;;5051603;28;20211;-75
2021/07/02 07:06:20;;;;;;;5.57;4.88;;;22.40;99.90;;;;;;5047186;28;20308;-78
2021/07/02 07:08:47;;;;;;;5.20;4.70;;;22.50;99.90;;;;;;5045941;28;20571;-74
2021/07/02 07:11:14;;;;;;;10.10;5.20;;;22.50;99.90;;;;;;5062724;28;20272;-75
2021/07/02 07:13:41;;;;;;;7.78;5.10;;;22.70;99.90;;;;;;5043474;28;20210;-75
2021/07/02 07:16:09;;;;;;;6.43;4.28;;;22.80;99.90;;;;;;5047694;28;20597;-76
2021/07/02 07:18:36;;;;;;;8.65;5.18;;;22.90;99.90;;;;;;5046851;28;20317;-71
2021/07/02 07:21:05;;;;;;;5.28;4.32;;;22.90;99.90;;;;;;5042895;28;20203;-74
2021/07/02 07:23:32;;;;;;;6.60;4.60;;;23.00;99.90;;;;;;5051810;28;20294;-75
2021/07/02 07:25:59;;;;;;;6.40;4.63;;;23.10;99.90;;;;;;5044252;28;20284;-75
2021/07/02 07:28:26;;;;;;;6.05;5.03;;;23.30;99.90;;;;;;5052895;28;20218;-74
2021/07/02 07:30:54;;;;;;;8.07;4.07;;;23.40;99.90;;;;;;5055208;28;20256;-75
2021/07/02 07:33:21;;;;;;;4.90;4.22;;;23.60;99.90;;;;;;5049258;28;20261;-74
2021/07/02 07:35:49;;;;;;;5.50;4.88;;;23.60;99.90;;;;;;5057000;28;20293;-75
2021/07/02 07:38:18;;;;;;;10.32;5.10;;;23.60;99.90;;;;;;5047157;28;20291;-76
2021/07/02 07:40:45;;;;;;;5.88;4.50;;;23.80;99.90;;;;;;5049034;28;20206;-75
2021/07/02 07:43:12;;;;;;;5.85;4.57;;;23.90;99.90;;;;;;5047276;28;20665;-71
2021/07/02 07:45:39;;;;;;;4.25;3.85;;;24.20;99.90;;;;;;5053225;28;20207;-71
2021/07/02 07:48:07;;;;;;;5.15;4.10;;;25.30;99.90;;;;;;5052163;28;20207;-77
2021/07/02 07:50:42;;;;;;;4.90;4.45;;;25.70;99.90;;;;;;5052925;28;20722;-75
2021/07/02 07:53:10;;;;;;;6.10;4.47;;;25.90;99.90;;;;;;5055287;28;20251;-73
2021/07/02 07:55:38;;;;;;;5.97;3.53;;;26.20;99.90;;;;;;5050691;28;20211;-76
2021/07/02 07:58:05;;;;;;;6.50;4.97;;;26.00;99.90;;;;;;5063332;28;20279;-71
2021/07/02 08:00:32;;;;;;;6.20;5.07;;;26.10;99.90;;;;;;5058840;28;20207;-75
2021/07/02 08:03:00;;;;;;;8.02;3.80;;;25.80;99.90;;;;;;5063904;28;20198;-74
2021/07/02 08:05:28;;;;;;;8.75;4.10;;;25.60;99.90;;;;;;5048199;28;20203;-75
2021/07/02 08:07:56;;;;;;;4.75;4.35;;;26.30;99.90;;;;;;5052447;28;20217;-73
2021/07/02 08:10:26;;;;;;;5.47;4.18;;;27.00;99.90;;;;;;5049967;28;20273;-75
2021/07/02 08:12:54;;;;;;;5.00;4.30;;;26.80;99.90;;;;;;5061237;28;20207;-79
2021/07/02 08:15:21;;;;;;;4.78;4.38;;;27.10;99.90;;;;;;5049242;28;20743;-78
2021/07/02 08:17:48;;;;;;;7.65;4.43;;;26.50;99.90;;;;;;5049183;28;20199;-76
2021/07/02 08:20:15;;;;;;;9.68;4.25;;;29.20;99.90;;;;;;5048291;28;20292;-75
2021/07/02 08:22:43;;;;;;;4.60;3.78;;;28.50;99.90;;;;;;5042862;28;20199;-74
2021/07/02 08:25:10;;;;;;;4.63;4.22;;;27.90;99.90;;;;;;5051582;28;20204;-79
2021/07/02 08:30:20;;;;;;;6.80;5.65;;;26.40;99.90;;;;;;5047388;28;20207;-73
2021/07/02 08:32:47;;;;;;;6.10;4.85;;;26.10;99.90;;;;;;5051498;28;20256;-78
2021/07/02 08:35:15;;;;;;;5.45;4.68;;;26.10;99.90;;;;;;5043222;28;20212;-76
2021/07/02 08:37:42;;;;;;;6.15;4.38;;;25.90;99.90;;;;;;5046641;28;20199;-72
2021/07/02 08:40:10;;;;;;;7.25;4.85;;;26.00;99.90;;;;;;5051815;28;20253;-72
2021/07/02 08:42:37;;;;;;;6.32;5.15;;;26.10;99.90;;;;;;5052103;28;20264;-76
2021/07/02 08:45:05;;;;;;;8.93;5.30;;;26.00;99.90;;;;;;5047549;28;20212;-73
2021/07/02 08:47:33;;;;;;;5.32;3.97;;;26.60;99.90;;;;;;5042594;28;20211;-76
2021/07/02 08:50:01;;;;;;;7.43;4.60;;;27.30;99.90;;;;;;5050852;28;20199;-74
2021/07/02 08:52:28;;;;;;;4.93;4.15;;;27.30;99.90;;;;;;5051480;28;20215;-77
2021/07/02 08:54:55;;;;;;;4.78;3.50;;;28.00;99.90;;;;;;5050811;28;20743;-77
2021/07/02 08:57:22;;;;;;;6.57;4.40;;;28.10;99.90;;;;;;5051426;28;20699;-75
2021/07/02 08:59:49;;;;;;;5.32;4.30;;;27.30;99.90;;;;;;5050063;28;20297;-77
2021/07/02 09:02:28;;;;;;;4.25;3.80;;;27.30;99.90;;;;;;5053246;28;20203;-77
2021/07/02 09:04:56;;;;;;;3.88;3.45;;;27.80;99.90;;;;;;5056798;28;20267;-80
2021/07/02 09:07:23;;;;;;;5.68;3.58;;;27.80;99.90;;;;;;5054570;28;20268;-78
2021/07/02 09:09:55;;;;;;;5.90;3.60;;;28.20;99.90;;;;;;5056506;28;20202;-77
2021/07/02 09:12:24;;;;;;;4.28;3.88;;;28.10;99.90;;;;;;5054304;28;20230;-78
2021/07/02 09:15:01;;;;;;;5.93;3.55;;;28.00;99.90;;;;;;5055811;28;20207;-76
2021/07/02 09:17:28;;;;;;;5.50;3.55;;;28.00;99.90;;;;;;5043776;28;20236;-78
2021/07/02 09:20:15;;;;;;;3.53;3.25;;;28.10;99.90;;;;;;5055463;28;20238;-76
2021/07/02 09:22:47;;;;;;;4.05;3.80;;;28.50;99.90;;;;;;5044398;28;20206;-77
2021/07/02 09:25:23;;;;;;;3.42;3.05;;;28.90;99.90;;;;;;5056808;28;20206;-78
2021/07/02 09:27:51;;;;;;;4.07;3.78;;;29.60;99.90;;;;;;5053602;28;20206;-76
2021/07/02 09:30:19;;;;;;;3.67;3.38;;;28.90;99.90;;;;;;5056157;28;20210;-77
2021/07/02 09:32:48;;;;;;;3.95;3.50;;;28.90;99.90;;;;;;5053517;28;20206;-75
2021/07/02 09:35:18;;;;;;;4.22;3.88;;;30.60;99.90;;;;;;5051969;28;20727;-74
2021/07/02 09:37:48;;;;;;;4.45;3.67;;;29.80;99.90;;;;;;5053333;28;20205;-78
2021/07/02 09:40:20;;;;;;;4.03;3.72;;;29.20;99.90;;;;;;5053616;28;20593;-78
2021/07/02 09:42:47;;;;;;;4.40;4.07;;;29.20;99.90;;;;;;5050275;28;20636;-74
2021/07/02 09:45:15;;;;;;;4.38;4.07;;;29.20;99.90;;;;;;5050861;28;20636;-79
2021/07/02 09:47:44;;;;;;;4.50;3.88;;;29.10;99.90;;;;;;5050465;28;20210;-74
2021/07/02 09:50:25;;;;;;;3.55;3.05;;;29.60;99.90;;;;;;5050954;28;20205;-77
2021/07/02 09:52:55;;;;;;;4.30;3.95;;;30.50;99.90;;;;;;5050272;28;20205;-80
2021/07/02 09:55:24;;;;;;;4.18;3.72;;;30.30;99.90;;;;;;5050862;28;20206;-79
2021/07/02 09:57:54;;;;;;;3.58;3.28;;;31.60;99.90;;;;;;5044690;28;20657;-75
2021/07/02 10:00:22;;;;;;;5.35;3.67;;;33.60;99.90;;;;;;5033139;28;20230;-76
2021/07/02 10:02:57;;;;;;;5.22;3.35;;;32.60;99.90;;;;;;5044164;28;20292;-77
2021/07/02 10:05:27;;;;;;;5.95;3.60;;;33.70;99.90;;;;;;5048878;28;20240;-76
2021/07/02 10:08:11;;;;;;;3.95;3.55;;;33.20;99.90;;;;;;5049871;28;20247;-79
2021/07/02 10:10:38;;;;;;;4.07;3.78;;;32.20;99.90;;;;;;5050909;28;20355;-78
2021/07/02 10:13:06;;;;;;;3.75;3.45;;;31.80;99.90;;;;;;5050870;28;20213;-78
2021/07/02 10:15:34;;;;;;;3.30;3.08;;;32.10;99.90;;;;;;5051495;28;20268;-79
2021/07/02 10:18:01;;;;;;;4.30;3.90;;;31.30;99.90;;;;;;5050511;28;20209;-78
2021/07/02 10:20:32;;;;;;;4.18;3.72;;;31.80;99.90;;;;;;5051587;28;20237;-79
2021/07/02 10:23:01;;;;;;;3.25;3.05;;;34.60;99.90;;;;;;5050623;28;20229;-76
2021/07/02 10:25:29;;;;;;;3.65;3.42;;;36.30;99.90;;;;;;5051296;28;20255;-78
2021/07/02 10:27:57;;;;;;;4.40;2.97;;;36.60;99.90;;;;;;5050481;28;20271;-77
2021/07/02 10:30:24;;;;;;;4.90;3.53;;;36.50;99.90;;;;;;5051272;28;20209;-78
2021/07/02 10:32:55;;;;;;;4.70;3.78;;;38.20;99.90;;;;;;5050843;28;20649;-77
2021/07/02 10:35:23;;;;;;;3.47;3.28;;;36.10;99.90;;;;;;5051231;28;20206;-77
2021/07/02 10:37:54;;;;;;;3.85;3.30;;;36.00;99.90;;;;;;5050312;28;20210;-78
2021/07/02 10:40:39;;;;;;;3.25;3.00;;;36.90;99.90;;;;;;5048615;28;20704;-77
2021/07/02 10:43:08;;;;;;;5.75;3.95;;;32.70;99.90;;;;;;5050424;28;20268;-80
2021/07/02 10:45:35;;;;;;;4.15;3.78;;;31.60;99.90;;;;;;5050332;28;20210;-77
2021/07/02 10:48:02;;;;;;;3.72;3.47;;;30.90;99.90;;;;;;5049730;28;20279;-77
2021/07/02 10:50:42;;;;;;;2.90;2.70;;;30.20;99.90;;;;;;5049916;28;20206;-76
2021/07/02 10:53:26;;;;;;;5.10;3.75;;;30.70;99.90;;;;;;5050005;28;20279;-73
2021/07/02 10:55:54;;;;;;;3.90;3.20;;;30.70;99.90;;;;;;5049770;28;20344;-81
2021/07/02 10:58:22;;;;;;;4.32;4.03;;;30.70;99.90;;;;;;5049846;28;20628;-79
2021/07/02 11:01:10;;;;;;;4.60;4.20;;;29.70;99.90;;;;;;5049477;28;20326;-73
2021/07/02 11:03:38;;;;;;;5.28;4.78;;;30.00;99.90;;;;;;5050314;28;20206;-78
2021/07/02 11:06:26;;;;;;;4.55;3.75;;;30.10;99.90;;;;;;5050231;28;20618;-77
2021/07/02 11:08:54;;;;;;;4.03;3.72;;;30.40;99.90;;;;;;5041045;28;20257;-77
2021/07/02 11:11:21;;;;;;;3.75;3.47;;;30.30;99.90;;;;;;5049519;28;20682;-77
2021/07/02 11:14:12;;;;;;;5.60;3.45;;;30.60;99.90;;;;;;5049139;28;20209;-76
2021/07/02 11:17:12;;;;;;;4.40;3.92;;;30.40;99.90;;;;;;5039655;28;20260;-76
2021/07/02 11:19:39;;;;;;;4.35;3.95;;;30.00;99.90;;;;;;5040464;28;20230;-74
2021/07/02 11:22:25;;;;;;;6.32;3.88;;;30.20;99.90;;;;;;5050080;28;20229;-77
2021/07/02 11:25:05;;;;;;;3.28;3.03;;;30.30;99.90;;;;;;5052395;28;20313;-77
2021/07/02 11:27:39;;;;;;;3.60;3.30;;;30.60;99.90;;;;;;5053038;28;20252;-77
2021/07/02 11:30:09;;;;;;;4.22;3.92;;;30.20;99.90;;;;;;5053556;28;20214;-79
2021/07/02 11:32:36;;;;;;;4.18;2.85;;;30.30;99.90;;;;;;5053384;28;20217;-75
2021/07/02 11:35:21;;;;;;;4.18;3.17;;;30.30;99.90;;;;;;5053471;28;20290;-79
2021/07/02 11:38:03;;;;;;;4.57;4.18;;;30.20;99.90;;;;;;5052927;28;20214;-74
2021/07/02 11:40:33;;;;;;;4.28;3.40;;;30.00;99.90;;;;;;5052536;28;20238;-76
2021/07/02 11:43:02;;;;;;;4.50;4.18;;;30.10;99.90;;;;;;5052424;28;20677;-78
2021/07/02 11:45:43;;;;;;;4.70;3.83;;;29.60;99.90;;;;;;5053358;28;20207;-76
2021/07/02 11:48:28;;;;;;;4.60;3.67;;;29.60;99.90;;;;;;5052836;28;20207;-73
2021/07/02 11:50:57;;;;;;;4.35;3.90;;;29.80;99.90;;;;;;5052667;28;20203;-76
2021/07/02 11:53:29;;;;;;;3.78;3.42;;;30.00;99.90;;;;;;5052693;28;20591;-76
2021/07/02 11:56:03;;;;;;;4.00;3.60;;;30.30;99.90;;;;;;5052565;28;20619;-77
2021/07/02 11:58:32;;;;;;;6.00;3.78;;;30.60;99.90;;;;;;5052628;28;20623;-78
2021/07/02 12:01:00;;;;;;;3.42;3.22;;;30.50;99.90;;;;;;5052457;28;20231;-78
2021/07/02 12:03:27;;;;;;;4.45;3.38;;;30.40;99.90;;;;;;5052403;28;20264;-77
2021/07/02 12:05:58;;;;;;;5.15;3.67;;;30.20;99.90;;;;;;5052254;28;20673;-76
2021/07/02 12:08:27;;;;;;;3.88;3.58;;;30.10;99.90;;;;;;5052457;28;20207;-77
2021/07/02 12:10:57;;;;;;;4.53;3.45;;;30.30;99.90;;;;;;5052382;28;20222;-75
2021/07/02 12:13:25;;;;;;;6.25;3.72;;;30.30;99.90;;;;;;5052252;28;20264;-77
2021/07/02 12:16:07;;;;;;;3.92;3.40;;;30.60;99.90;;;;;;5051825;28;20219;-76
2021/07/02 12:18:35;;;;;;;3.85;3.45;;;30.70;99.90;;;;;;5052722;28;20207;-77
2021/07/02 12:21:05;;;;;;;3.70;3.40;;;30.70;99.90;;;;;;5051869;28;20268;-76
2021/07/02 12:23:34;;;;;;;3.10;2.90;;;30.70;99.90;;;;;;5052061;28;20206;-75
2021/07/02 12:26:15;;;;;;;3.92;3.63;;;30.40;99.90;;;;;;5051633;28;20642;-78
2021/07/02 12:29:05;;;;;;;6.10;3.45;;;30.50;99.90;;;;;;5051846;28;20207;-75
2021/07/02 12:31:34;;;;;;;3.30;3.10;;;30.80;99.90;;;;;;5043540;28;20199;-75
2021/07/02 12:34:03;;;;;;;5.50;3.10;;;31.30;99.90;;;;;;5039582;28;20674;-76
2021/07/02 12:36:32;;;;;;;3.10;2.88;;;31.10;99.90;;;;;;5043883;28;20215;-78
2021/07/02 12:39:13;;;;;;;3.83;3.33;;;31.20;99.90;;;;;;5047904;28;20210;-77
2021/07/02 12:41:43;;;;;;;4.85;3.80;;;30.90;99.90;;;;;;5037777;28;20238;-75
2021/07/02 12:44:16;;;;;;;3.55;3.25;;;30.60;99.90;;;;;;5046193;28;20414;-75
2021/07/02 12:46:44;;;;;;;4.22;3.88;;;30.60;99.90;;;;;;5043791;28;20674;-73
2021/07/02 12:49:34;;;;;;;3.40;3.05;;;30.20;99.90;;;;;;5042154;28;20261;-78
2021/07/02 12:55:03;;;;;;;13.75;3.72;;;30.70;99.90;;;;;;5041905;28;20202;-76
2021/07/02 12:57:31;;;;;;;3.35;3.08;;;31.20;99.90;;;;;;5042012;28;20207;-79
2021/07/02 13:00:01;;;;;;;3.10;2.72;;;31.00;99.90;;;;;;5045212;28;20233;-77
2021/07/02 13:02:37;;;;;;;4.18;3.78;;;31.00;99.90;;;;;;5045749;28;20264;-78